sensor_id;sensor_type;location;lat;lon;timestamp;temperature;humidity
56103;DHT22;41970;48.774;9.280;2023-09-07T00:01:26;17.40;99.90
56103;DHT22;41970;48.774;9.280;2023-09-07T00:03:52;17.50;99.90
56103;DHT22;41970;48.774;9.280;2023-09-07T00:06:18;17.50;99.90
56103;DHT22;41970;48.774;9.280;2023-09-07T00:08:44;17.40;99.90
56103;DHT22;41970;48.774;9.280;2023-09-07T00:11:10;17.40;99.90
56103;DHT22;41970;48.774;9.280;2023-09-07T00:13:36;17.30;99.90
56103;DHT22;41970;48.774;9.280;2023-09-07T00:16:03;17.20;99.90
56103;DHT22;41970;48.774;9.280;2023-09-07T00:18:30;17.10;99.90
56103;DHT22;41970;48.774;9.280;2023-09-07T00:20:56;17.10;99.90
56103;DHT22;41970;48.774;9.280;2023-09-07T00:23:22;17.10;99.90
56103;DHT22;41970;48.774;9.280;2023-09-07T00:25:48;17.00;99.90
56103;DHT22;41970;48.774;9.280;2023-09-07T00:28:14;17.00;99.90
56103;DHT22;41970;48.774;9.280;2023-09-07T00:30:40;16.90;99.90
56103;DHT22;41970;48.774;9.280;2023-09-07T00:33:07;17.00;99.90
56103;DHT22;41970;48.774;9.280;2023-09-07T00:35:32;17.10;99.90
56103;DHT22;41970;48.774;9.280;2023-09-07T00:37:58;17.20;99.90
56103;DHT22;41970;48.774;9.280;2023-09-07T00:40:24;17.10;99.90
56103;DHT22;41970;48.774;9.280;2023-09-07T00:42:51;16.90;99.90
56103;DHT22;41970;48.774;9.280;2023-09-07T00:45:17;16.90;99.90
56103;DHT22;41970;48.774;9.280;2023-09-07T00:47:43;16.80;99.90
56103;DHT22;41970;48.774;9.280;2023-09-07T00:50:10;16.80;99.90
56103;DHT22;41970;48.774;9.280;2023-09-07T00:52:41;16.80;99.90
56103;DHT22;41970;48.774;9.280;2023-09-07T00:55:07;16.90;99.90
56103;DHT22;41970;48.774;9.280;2023-09-07T00:57:34;17.00;99.90
56103;DHT22;41970;48.774;9.280;2023-09-07T01:00:00;16.90;99.90
56103;DHT22;41970;48.774;9.280;2023-09-07T01:02:26;16.90;99.90
56103;DHT22;41970;48.774;9.280;2023-09-07T01:04:52;16.80;99.90
56103;DHT22;41970;48.774;9.280;2023-09-07T01:07:31;16.70;99.90
56103;DHT22;41970;48.774;9.280;2023-09-07T01:10:00;16.70;99.90
56103;DHT22;41970;48.774;9.280;2023-09-07T01:12:27;16.60;99.90
56103;DHT22;41970;48.774;9.280;2023-09-07T01:14:54;16.60;99.90
56103;DHT22;41970;48.774;9.280;2023-09-07T01:17:20;16.60;99.90
56103;DHT22;41970;48.774;9.280;2023-09-07T01:19:48;16.70;99.90
56103;DHT22;41970;48.774;9.280;2023-09-07T01:22:19;16.60;99.90
56103;DHT22;41970;48.774;9.280;2023-09-07T01:24:46;16.50;99.90
56103;DHT22;41970;48.774;9.280;2023-09-07T01:27:12;16.40;99.90
56103;DHT22;41970;48.774;9.280;2023-09-07T01:29:41;16.30;99.90
56103;DHT22;41970;48.774;9.280;2023-09-07T01:32:06;16.40;99.90
56103;DHT22;41970;48.774;9.280;2023-09-07T01:34:35;16.40;99.90
56103;DHT22;41970;48.774;9.280;2023-09-07T01:37:01;16.40;99.90
56103;DHT22;41970;48.774;9.280;2023-09-07T01:39:27;16.30;99.90
56103;DHT22;41970;48.774;9.280;2023-09-07T01:41:53;16.30;99.90
56103;DHT22;41970;48.774;9.280;2023-09-07T01:44:19;16.20;99.90
56103;DHT22;41970;48.774;9.280;2023-09-07T01:46:45;16.30;99.90
56103;DHT22;41970;48.774;9.280;2023-09-07T01:49:10;16.20;99.90
56103;DHT22;41970;48.774;9.280;2023-09-07T01:51:36;16.20;99.90
56103;DHT22;41970;48.774;9.280;2023-09-07T01:54:02;16.20;99.90
56103;DHT22;41970;48.774;9.280;2023-09-07T01:56:28;16.20;99.90
56103;DHT22;41970;48.774;9.280;2023-09-07T01:58:53;16.20;99.90
56103;DHT22;41970;48.774;9.280;2023-09-07T02:01:26;16.30;99.90
56103;DHT22;41970;48.774;9.280;2023-09-07T02:03:52;16.30;99.90
56103;DHT22;41970;48.774;9.280;2023-09-07T02:06:18;16.40;99.90
56103;DHT22;41970;48.774;9.280;2023-09-07T02:08:44;16.30;99.90
56103;DHT22;41970;48.774;9.280;2023-09-07T02:11:10;16.20;99.90
56103;DHT22;41970;48.774;9.280;2023-09-07T02:13:36;16.10;99.90
56103;DHT22;41970;48.774;9.280;2023-09-07T02:16:05;16.10;99.90
56103;DHT22;41970;48.774;9.280;2023-09-07T02:18:34;16.10;99.90
56103;DHT22;41970;48.774;9.280;2023-09-07T02:21:02;16.10;99.90
56103;DHT22;41970;48.774;9.280;2023-09-07T02:23:30;16.20;99.90
56103;DHT22;41970;48.774;9.280;2023-09-07T02:25:56;16.20;99.90
56103;DHT22;41970;48.774;9.280;2023-09-07T02:28:23;16.10;99.90
56103;DHT22;41970;48.774;9.280;2023-09-07T02:30:49;16.00;99.90
56103;DHT22;41970;48.774;9.280;2023-09-07T02:33:15;15.90;99.90
56103;DHT22;41970;48.774;9.280;2023-09-07T02:35:41;15.90;99.90
56103;DHT22;41970;48.774;9.280;2023-09-07T02:38:07;16.00;99.90
56103;DHT22;41970;48.774;9.280;2023-09-07T02:40:32;16.10;99.90
56103;DHT22;41970;48.774;9.280;2023-09-07T02:42:58;16.20;99.90
56103;DHT22;41970;48.774;9.280;2023-09-07T02:45:24;16.10;99.90
56103;DHT22;41970;48.774;9.280;2023-09-07T02:47:50;16.00;99.90
56103;DHT22;41970;48.774;9.280;2023-09-07T02:50:16;16.00;99.90
56103;DHT22;41970;48.774;9.280;2023-09-07T02:52:43;15.90;99.90
56103;DHT22;41970;48.774;9.280;2023-09-07T02:55:10;15.90;99.90
56103;DHT22;41970;48.774;9.280;2023-09-07T02:57:36;15.80;99.90
56103;DHT22;41970;48.774;9.280;2023-09-07T03:00:02;15.90;99.90
56103;DHT22;41970;48.774;9.280;2023-09-07T03:02:35;15.90;99.90
56103;DHT22;41970;48.774;9.280;2023-09-07T03:05:01;16.00;99.90
56103;DHT22;41970;48.774;9.280;2023-09-07T03:07:30;15.90;99.90
56103;DHT22;41970;48.774;9.280;2023-09-07T03:09:56;15.80;99.90
56103;DHT22;41970;48.774;9.280;2023-09-07T03:12:22;15.80;99.90
56103;DHT22;41970;48.774;9.280;2023-09-07T03:14:47;15.70;99.90
56103;DHT22;41970;48.774;9.280;2023-09-07T03:17:14;15.80;99.90
56103;DHT22;41970;48.774;9.280;2023-09-07T03:19:41;15.80;99.90
56103;DHT22;41970;48.774;9.280;2023-09-07T03:22:07;15.80;99.90
56103;DHT22;41970;48.774;9.280;2023-09-07T03:24:34;15.80;99.90
56103;DHT22;41970;48.774;9.280;2023-09-07T03:27:00;15.80;99.90
56103;DHT22;41970;48.774;9.280;2023-09-07T03:29:26;15.80;99.90
56103;DHT22;41970;48.774;9.280;2023-09-07T03:31:51;15.70;99.90
56103;DHT22;41970;48.774;9.280;2023-09-07T03:34:17;15.70;99.90
56103;DHT22;41970;48.774;9.280;2023-09-07T03:36:43;15.70;99.90
56103;DHT22;41970;48.774;9.280;2023-09-07T03:39:09;15.60;99.90
56103;DHT22;41970;48.774;9.280;2023-09-07T03:41:35;15.60;99.90
56103;DHT22;41970;48.774;9.280;2023-09-07T03:44:01;15.70;99.90
56103;DHT22;41970;48.774;9.280;2023-09-07T03:46:27;15.60;99.90
56103;DHT22;41970;48.774;9.280;2023-09-07T03:48:53;15.60;99.90
56103;DHT22;41970;48.774;9.280;2023-09-07T03:51:18;15.50;99.90
56103;DHT22;41970;48.774;9.280;2023-09-07T03:53:44;15.50;99.90
56103;DHT22;41970;48.774;9.280;2023-09-07T03:56:11;15.50;99.90
56103;DHT22;41970;48.774;9.280;2023-09-07T03:58:37;15.40;99.90
56103;DHT22;41970;48.774;9.280;2023-09-07T04:01:03;15.40;99.90
56103;DHT22;41970;48.774;9.280;2023-09-07T04:03:28;15.30;99.90
56103;DHT22;41970;48.774;9.280;2023-09-07T04:05:54;15.30;99.90
56103;DHT22;41970;48.774;9.280;2023-09-07T04:08:20;15.20;99.90
56103;DHT22;41970;48.774;9.280;2023-09-07T04:10:45;15.20;99.90
56103;DHT22;41970;48.774;9.280;2023-09-07T04:13:11;15.30;99.90
56103;DHT22;41970;48.774;9.280;2023-09-07T04:15:46;15.30;99.90
56103;DHT22;41970;48.774;9.280;2023-09-07T04:18:12;15.30;99.90
56103;DHT22;41970;48.774;9.280;2023-09-07T04:20:40;15.30;99.90
56103;DHT22;41970;48.774;9.280;2023-09-07T04:23:06;15.20;99.90
56103;DHT22;41970;48.774;9.280;2023-09-07T04:25:32;15.20;99.90
56103;DHT22;41970;48.774;9.280;2023-09-07T04:27:58;15.10;99.90
56103;DHT22;41970;48.774;9.280;2023-09-07T04:30:24;15.10;99.90
56103;DHT22;41970;48.774;9.280;2023-09-07T04:32:50;15.00;99.90
56103;DHT22;41970;48.774;9.280;2023-09-07T04:35:15;15.00;99.90
56103;DHT22;41970;48.774;9.280;2023-09-07T04:37:44;15.00;99.90
56103;DHT22;41970;48.774;9.280;2023-09-07T04:40:11;15.00;99.90
56103;DHT22;41970;48.774;9.280;2023-09-07T04:42:37;15.10;99.90
56103;DHT22;41970;48.774;9.280;2023-09-07T04:45:06;15.00;99.90
56103;DHT22;41970;48.774;9.280;2023-09-07T04:47:32;15.00;99.90
56103;DHT22;41970;48.774;9.280;2023-09-07T04:49:58;14.90;99.90
56103;DHT22;41970;48.774;9.280;2023-09-07T04:52:25;14.90;99.90
56103;DHT22;41970;48.774;9.280;2023-09-07T04:54:51;14.90;99.90
56103;DHT22;41970;48.774;9.280;2023-09-07T04:57:17;14.80;99.90
56103;DHT22;41970;48.774;9.280;2023-09-07T04:59:45;14.90;99.90
56103;DHT22;41970;48.774;9.280;2023-09-07T05:02:11;15.00;99.90
56103;DHT22;41970;48.774;9.280;2023-09-07T05:04:38;15.00;99.90
56103;DHT22;41970;48.774;9.280;2023-09-07T05:07:04;14.90;99.90
56103;DHT22;41970;48.774;9.280;2023-09-07T05:09:30;14.90;99.90
56103;DHT22;41970;48.774;9.280;2023-09-07T05:11:56;14.90;99.90
56103;DHT22;41970;48.774;9.280;2023-09-07T05:14:23;14.90;99.90
56103;DHT22;41970;48.774;9.280;2023-09-07T05:16:49;14.90;99.90
56103;DHT22;41970;48.774;9.280;2023-09-07T05:19:15;15.00;99.90
56103;DHT22;41970;48.774;9.280;2023-09-07T05:21:41;15.00;99.90
56103;DHT22;41970;48.774;9.280;2023-09-07T05:24:07;14.90;99.90
56103;DHT22;41970;48.774;9.280;2023-09-07T05:26:33;15.00;99.90
56103;DHT22;41970;48.774;9.280;2023-09-07T05:28:58;15.00;99.90
56103;DHT22;41970;48.774;9.280;2023-09-07T05:31:24;15.00;99.90
56103;DHT22;41970;48.774;9.280;2023-09-07T05:33:50;15.10;99.90
56103;DHT22;41970;48.774;9.280;2023-09-07T05:36:17;15.10;99.90
56103;DHT22;41970;48.774;9.280;2023-09-07T05:38:43;15.10;99.90
56103;DHT22;41970;48.774;9.280;2023-09-07T05:41:09;15.10;99.90
56103;DHT22;41970;48.774;9.280;2023-09-07T05:43:37;15.10;99.90
56103;DHT22;41970;48.774;9.280;2023-09-07T05:46:03;15.00;99.90
56103;DHT22;41970;48.774;9.280;2023-09-07T05:48:29;15.00;99.90
56103;DHT22;41970;48.774;9.280;2023-09-07T05:50:54;15.00;99.90
56103;DHT22;41970;48.774;9.280;2023-09-07T05:53:20;15.00;99.90
56103;DHT22;41970;48.774;9.280;2023-09-07T05:55:46;15.10;99.90
56103;DHT22;41970;48.774;9.280;2023-09-07T05:58:12;15.10;99.90
56103;DHT22;41970;48.774;9.280;2023-09-07T06:00:38;15.10;99.90
56103;DHT22;41970;48.774;9.280;2023-09-07T06:03:06;15.20;99.90
56103;DHT22;41970;48.774;9.280;2023-09-07T06:05:33;15.30;99.90
56103;DHT22;41970;48.774;9.280;2023-09-07T06:07:59;15.40;99.90
56103;DHT22;41970;48.774;9.280;2023-09-07T06:10:25;15.50;99.90
56103;DHT22;41970;48.774;9.280;2023-09-07T06:12:53;15.50;99.90
56103;DHT22;41970;48.774;9.280;2023-09-07T06:15:18;15.60;99.90
56103;DHT22;41970;48.774;9.280;2023-09-07T06:17:44;15.60;99.90
56103;DHT22;41970;48.774;9.280;2023-09-07T06:20:11;15.70;99.90
56103;DHT22;41970;48.774;9.280;2023-09-07T06:22:36;15.70;99.90
56103;DHT22;41970;48.774;9.280;2023-09-07T06:25:02;15.80;99.90
56103;DHT22;41970;48.774;9.280;2023-09-07T06:27:28;15.90;99.90
56103;DHT22;41970;48.774;9.280;2023-09-07T06:29:54;15.90;99.90
56103;DHT22;41970;48.774;9.280;2023-09-07T06:32:20;16.00;99.90
56103;DHT22;41970;48.774;9.280;2023-09-07T06:34:45;16.10;99.90
56103;DHT22;41970;48.774;9.280;2023-09-07T06:37:11;16.10;99.90
56103;DHT22;41970;48.774;9.280;2023-09-07T06:39:37;16.20;99.90
56103;DHT22;41970;48.774;9.280;2023-09-07T06:42:03;16.30;99.90
56103;DHT22;41970;48.774;9.280;2023-09-07T06:44:29;16.40;99.90
56103;DHT22;41970;48.774;9.280;2023-09-07T06:46:55;16.50;99.90
56103;DHT22;41970;48.774;9.280;2023-09-07T06:49:21;16.60;99.90
56103;DHT22;41970;48.774;9.280;2023-09-07T06:51:48;16.60;99.90
56103;DHT22;41970;48.774;9.280;2023-09-07T06:54:13;16.70;99.90
56103;DHT22;41970;48.774;9.280;2023-09-07T06:56:39;16.70;99.90
56103;DHT22;41970;48.774;9.280;2023-09-07T06:59:05;16.80;99.90
56103;DHT22;41970;48.774;9.280;2023-09-07T07:01:31;17.00;99.90
56103;DHT22;41970;48.774;9.280;2023-09-07T07:03:57;17.20;99.90
56103;DHT22;41970;48.774;9.280;2023-09-07T07:06:23;17.30;99.90
56103;DHT22;41970;48.774;9.280;2023-09-07T07:08:49;17.40;99.90
56103;DHT22;41970;48.774;9.280;2023-09-07T07:11:15;17.50;99.90
56103;DHT22;41970;48.774;9.280;2023-09-07T07:13:41;17.60;99.90
56103;DHT22;41970;48.774;9.280;2023-09-07T07:16:07;17.70;99.90
56103;DHT22;41970;48.774;9.280;2023-09-07T07:18:33;17.70;99.90
56103;DHT22;41970;48.774;9.280;2023-09-07T07:20:58;17.80;99.90
56103;DHT22;41970;48.774;9.280;2023-09-07T07:23:24;18.00;99.90
56103;DHT22;41970;48.774;9.280;2023-09-07T07:25:50;18.20;99.90
56103;DHT22;41970;48.774;9.280;2023-09-07T07:28:16;18.40;99.90
56103;DHT22;41970;48.774;9.280;2023-09-07T07:30:42;19.00;99.90
56103;DHT22;41970;48.774;9.280;2023-09-07T07:33:09;19.60;99.90
56103;DHT22;41970;48.774;9.280;2023-09-07T07:35:37;20.30;99.90
56103;DHT22;41970;48.774;9.280;2023-09-07T07:38:04;20.80;99.90
56103;DHT22;41970;48.774;9.280;2023-09-07T07:40:30;21.30;99.90
56103;DHT22;41970;48.774;9.280;2023-09-07T07:42:56;21.60;99.90
56103;DHT22;41970;48.774;9.280;2023-09-07T07:45:22;22.10;99.90
56103;DHT22;41970;48.774;9.280;2023-09-07T07:47:53;22.60;99.90
56103;DHT22;41970;48.774;9.280;2023-09-07T07:50:19;23.20;99.90
56103;DHT22;41970;48.774;9.280;2023-09-07T07:52:45;23.40;99.90
56103;DHT22;41970;48.774;9.280;2023-09-07T07:55:12;23.90;99.90
56103;DHT22;41970;48.774;9.280;2023-09-07T07:57:38;24.20;99.90
56103;DHT22;41970;48.774;9.280;2023-09-07T08:00:04;24.50;99.90
56103;DHT22;41970;48.774;9.280;2023-09-07T08:02:31;24.80;99.90
56103;DHT22;41970;48.774;9.280;2023-09-07T08:04:57;24.80;99.90
56103;DHT22;41970;48.774;9.280;2023-09-07T08:07:24;25.20;99.90
56103;DHT22;41970;48.774;9.280;2023-09-07T08:09:50;25.20;99.30
56103;DHT22;41970;48.774;9.280;2023-09-07T08:12:16;25.40;99.30
56103;DHT22;41970;48.774;9.280;2023-09-07T08:14:42;25.60;99.20
56103;DHT22;41970;48.774;9.280;2023-09-07T08:17:08;25.90;98.60
56103;DHT22;41970;48.774;9.280;2023-09-07T08:19:34;26.40;98.10
56103;DHT22;41970;48.774;9.280;2023-09-07T08:22:00;26.30;97.80
56103;DHT22;41970;48.774;9.280;2023-09-07T08:24:29;26.50;97.80
56103;DHT22;41970;48.774;9.280;2023-09-07T08:26:55;26.80;97.00
56103;DHT22;41970;48.774;9.280;2023-09-07T08:29:26;27.20;97.00
56103;DHT22;41970;48.774;9.280;2023-09-07T08:31:56;27.30;96.90
56103;DHT22;41970;48.774;9.280;2023-09-07T08:34:23;27.10;96.60
56103;DHT22;41970;48.774;9.280;2023-09-07T08:36:49;27.40;97.00
56103;DHT22;41970;48.774;9.280;2023-09-07T08:39:20;27.40;96.10
56103;DHT22;41970;48.774;9.280;2023-09-07T08:41:46;27.70;96.10
56103;DHT22;41970;48.774;9.280;2023-09-07T08:44:21;27.70;96.00
56103;DHT22;41970;48.774;9.280;2023-09-07T08:46:50;28.00;95.70
56103;DHT22;41970;48.774;9.280;2023-09-07T08:49:17;28.20;95.10
56103;DHT22;41970;48.774;9.280;2023-09-07T08:51:46;28.30;95.20
56103;DHT22;41970;48.774;9.280;2023-09-07T08:54:13;28.50;94.60
56103;DHT22;41970;48.774;9.280;2023-09-07T08:56:39;28.70;94.50
56103;DHT22;41970;48.774;9.280;2023-09-07T08:59:05;28.80;94.80
56103;DHT22;41970;48.774;9.280;2023-09-07T09:01:31;28.90;93.70
56103;DHT22;41970;48.774;9.280;2023-09-07T09:04:00;28.90;94.30
56103;DHT22;41970;48.774;9.280;2023-09-07T09:06:25;29.10;93.60
56103;DHT22;41970;48.774;9.280;2023-09-07T09:08:54;29.30;93.40
56103;DHT22;41970;48.774;9.280;2023-09-07T09:11:24;29.30;93.20
56103;DHT22;41970;48.774;9.280;2023-09-07T09:13:51;29.40;93.20
56103;DHT22;41970;48.774;9.280;2023-09-07T09:16:18;29.40;93.30
56103;DHT22;41970;48.774;9.280;2023-09-07T09:18:49;29.40;93.90
56103;DHT22;41970;48.774;9.280;2023-09-07T09:21:17;29.50;93.70
56103;DHT22;41970;48.774;9.280;2023-09-07T09:23:43;29.60;93.00
56103;DHT22;41970;48.774;9.280;2023-09-07T09:26:09;29.70;92.90
56103;DHT22;41970;48.774;9.280;2023-09-07T09:28:35;29.90;93.30
56103;DHT22;41970;48.774;9.280;2023-09-07T09:31:02;29.90;92.50
56103;DHT22;41970;48.774;9.280;2023-09-07T09:33:32;29.80;92.70
56103;DHT22;41970;48.774;9.280;2023-09-07T09:35:58;29.80;93.20
56103;DHT22;41970;48.774;9.280;2023-09-07T09:38:25;29.80;92.60
56103;DHT22;41970;48.774;9.280;2023-09-07T09:40:51;29.90;92.30
56103;DHT22;41970;48.774;9.280;2023-09-07T09:43:19;29.70;92.40
56103;DHT22;41970;48.774;9.280;2023-09-07T09:45:46;29.70;93.00
56103;DHT22;41970;48.774;9.280;2023-09-07T09:48:13;29.60;92.60
56103;DHT22;41970;48.774;9.280;2023-09-07T09:50:40;29.50;92.80
56103;DHT22;41970;48.774;9.280;2023-09-07T09:53:08;29.50;92.60
56103;DHT22;41970;48.774;9.280;2023-09-07T09:55:34;29.40;92.50
56103;DHT22;41970;48.774;9.280;2023-09-07T09:58:00;29.30;93.20
56103;DHT22;41970;48.774;9.280;2023-09-07T10:00:27;29.20;93.40
56103;DHT22;41970;48.774;9.280;2023-09-07T10:05:45;29.10;93.20
56103;DHT22;41970;48.774;9.280;2023-09-07T10:08:17;28.90;93.40
56103;DHT22;41970;48.774;9.280;2023-09-07T10:10:43;28.70;94.00
56103;DHT22;41970;48.774;9.280;2023-09-07T10:13:14;28.30;93.90
56103;DHT22;41970;48.774;9.280;2023-09-07T10:15:40;28.20;94.30
56103;DHT22;41970;48.774;9.280;2023-09-07T10:18:10;28.20;94.80
56103;DHT22;41970;48.774;9.280;2023-09-07T10:20:56;28.30;94.90
56103;DHT22;41970;48.774;9.280;2023-09-07T10:23:43;28.30;94.80
56103;DHT22;41970;48.774;9.280;2023-09-07T10:26:16;28.30;94.30
56103;DHT22;41970;48.774;9.280;2023-09-07T10:28:43;28.10;94.70
56103;DHT22;41970;48.774;9.280;2023-09-07T10:31:19;28.00;94.60
56103;DHT22;41970;48.774;9.280;2023-09-07T10:33:46;27.90;94.90
56103;DHT22;41970;48.774;9.280;2023-09-07T10:36:30;27.80;95.20
56103;DHT22;41970;48.774;9.280;2023-09-07T10:38:56;27.70;96.10
56103;DHT22;41970;48.774;9.280;2023-09-07T10:41:22;27.80;95.60
56103;DHT22;41970;48.774;9.280;2023-09-07T10:43:55;27.90;95.40
56103;DHT22;41970;48.774;9.280;2023-09-07T10:46:23;28.00;95.70
56103;DHT22;41970;48.774;9.280;2023-09-07T10:48:50;27.90;95.70
56103;DHT22;41970;48.774;9.280;2023-09-07T10:51:17;27.70;95.90
56103;DHT22;41970;48.774;9.280;2023-09-07T10:53:43;27.60;96.00
56103;DHT22;41970;48.774;9.280;2023-09-07T10:56:09;27.40;96.00
56103;DHT22;41970;48.774;9.280;2023-09-07T10:58:36;27.40;96.50
56103;DHT22;41970;48.774;9.280;2023-09-07T11:01:06;27.40;96.30
56103;DHT22;41970;48.774;9.280;2023-09-07T11:03:33;27.60;96.30
56103;DHT22;41970;48.774;9.280;2023-09-07T11:06:20;27.70;95.80
56103;DHT22;41970;48.774;9.280;2023-09-07T11:08:47;27.80;95.80
56103;DHT22;41970;48.774;9.280;2023-09-07T11:11:13;27.90;95.80
56103;DHT22;41970;48.774;9.280;2023-09-07T11:13:39;27.90;96.00
56103;DHT22;41970;48.774;9.280;2023-09-07T11:16:08;28.00;95.90
56103;DHT22;41970;48.774;9.280;2023-09-07T11:18:35;28.00;96.00
56103;DHT22;41970;48.774;9.280;2023-09-07T11:21:04;28.00;95.70
56103;DHT22;41970;48.774;9.280;2023-09-07T11:23:31;28.00;95.60
56103;DHT22;41970;48.774;9.280;2023-09-07T11:26:04;27.60;96.30
56103;DHT22;41970;48.774;9.280;2023-09-07T11:28:31;27.20;96.60
56103;DHT22;41970;48.774;9.280;2023-09-07T11:30:58;27.30;96.40
56103;DHT22;41970;48.774;9.280;2023-09-07T11:33:24;26.90;96.60
56103;DHT22;41970;48.774;9.280;2023-09-07T11:35:51;27.00;96.90
56103;DHT22;41970;48.774;9.280;2023-09-07T11:38:20;27.00;96.90
56103;DHT22;41970;48.774;9.280;2023-09-07T11:40:46;27.20;96.60
56103;DHT22;41970;48.774;9.280;2023-09-07T11:43:16;27.30;96.40
56103;DHT22;41970;48.774;9.280;2023-09-07T11:45:43;27.30;96.40
56103;DHT22;41970;48.774;9.280;2023-09-07T11:48:09;27.00;97.10
56103;DHT22;41970;48.774;9.280;2023-09-07T11:50:35;27.10;97.40
56103;DHT22;41970;48.774;9.280;2023-09-07T11:53:01;27.00;96.80
56103;DHT22;41970;48.774;9.280;2023-09-07T11:55:27;26.90;96.90
56103;DHT22;41970;48.774;9.280;2023-09-07T11:57:53;26.90;96.80
56103;DHT22;41970;48.774;9.280;2023-09-07T12:00:19;26.90;97.00
56103;DHT22;41970;48.774;9.280;2023-09-07T12:02:45;27.20;96.80
56103;DHT22;41970;48.774;9.280;2023-09-07T12:05:11;27.30;96.40
56103;DHT22;41970;48.774;9.280;2023-09-07T12:07:40;27.00;96.90
56103;DHT22;41970;48.774;9.280;2023-09-07T12:10:07;27.10;96.70
56103;DHT22;41970;48.774;9.280;2023-09-07T12:12:37;27.40;96.20
56103;DHT22;41970;48.774;9.280;2023-09-07T12:15:03;27.30;95.90
56103;DHT22;41970;48.774;9.280;2023-09-07T12:17:30;27.30;96.20
56103;DHT22;41970;48.774;9.280;2023-09-07T12:19:56;27.20;96.40
56103;DHT22;41970;48.774;9.280;2023-09-07T12:22:22;27.40;96.20
56103;DHT22;41970;48.774;9.280;2023-09-07T12:24:48;27.30;95.60
56103;DHT22;41970;48.774;9.280;2023-09-07T12:27:14;27.40;95.90
56103;DHT22;41970;48.774;9.280;2023-09-07T12:29:40;27.60;95.40
56103;DHT22;41970;48.774;9.280;2023-09-07T12:32:06;27.70;95.30
56103;DHT22;41970;48.774;9.280;2023-09-07T12:34:31;27.80;95.10
56103;DHT22;41970;48.774;9.280;2023-09-07T12:36:57;27.90;95.00
56103;DHT22;41970;48.774;9.280;2023-09-07T12:39:23;28.00;95.10
56103;DHT22;41970;48.774;9.280;2023-09-07T12:41:49;28.10;94.80
56103;DHT22;41970;48.774;9.280;2023-09-07T12:44:14;28.30;94.00
56103;DHT22;41970;48.774;9.280;2023-09-07T12:46:40;28.10;94.50
56103;DHT22;41970;48.774;9.280;2023-09-07T12:49:06;28.10;94.70
56103;DHT22;41970;48.774;9.280;2023-09-07T12:51:32;28.00;94.70
56103;DHT22;41970;48.774;9.280;2023-09-07T12:53:57;28.20;94.80
56103;DHT22;41970;48.774;9.280;2023-09-07T12:56:23;28.30;94.20
56103;DHT22;41970;48.774;9.280;2023-09-07T12:58:49;28.40;93.80
56103;DHT22;41970;48.774;9.280;2023-09-07T13:01:17;28.50;93.90
56103;DHT22;41970;48.774;9.280;2023-09-07T13:03:44;28.50;94.00
56103;DHT22;41970;48.774;9.280;2023-09-07T13:06:10;28.50;93.80
56103;DHT22;41970;48.774;9.280;2023-09-07T13:08:36;28.40;93.40
56103;DHT22;41970;48.774;9.280;2023-09-07T13:11:01;28.50;93.40
56103;DHT22;41970;48.774;9.280;2023-09-07T13:13:27;28.60;93.80
56103;DHT22;41970;48.774;9.280;2023-09-07T13:15:58;28.70;93.20
56103;DHT22;41970;48.774;9.280;2023-09-07T13:18:24;28.40;93.30
56103;DHT22;41970;48.774;9.280;2023-09-07T13:20:50;28.20;93.90
56103;DHT22;41970;48.774;9.280;2023-09-07T13:23:19;28.30;93.60
56103;DHT22;41970;48.774;9.280;2023-09-07T13:25:44;28.40;93.50
56103;DHT22;41970;48.774;9.280;2023-09-07T13:28:10;28.50;93.40
56103;DHT22;41970;48.774;9.280;2023-09-07T13:30:36;28.60;93.20
56103;DHT22;41970;48.774;9.280;2023-09-07T13:33:02;28.70;93.10
56103;DHT22;41970;48.774;9.280;2023-09-07T13:35:28;28.80;93.10
56103;DHT22;41970;48.774;9.280;2023-09-07T13:37:54;28.90;93.10
56103;DHT22;41970;48.774;9.280;2023-09-07T13:40:20;28.90;93.10
56103;DHT22;41970;48.774;9.280;2023-09-07T13:42:49;29.00;92.90
56103;DHT22;41970;48.774;9.280;2023-09-07T13:45:15;29.00;93.00
56103;DHT22;41970;48.774;9.280;2023-09-07T13:47:41;29.10;92.80
56103;DHT22;41970;48.774;9.280;2023-09-07T13:50:07;29.10;92.40
56103;DHT22;41970;48.774;9.280;2023-09-07T13:52:33;29.30;92.50
56103;DHT22;41970;48.774;9.280;2023-09-07T13:54:58;29.40;92.70
56103;DHT22;41970;48.774;9.280;2023-09-07T13:57:24;29.40;92.90
56103;DHT22;41970;48.774;9.280;2023-09-07T13:59:50;29.00;92.70
56103;DHT22;41970;48.774;9.280;2023-09-07T14:02:15;28.70;92.50
56103;DHT22;41970;48.774;9.280;2023-09-07T14:04:41;28.70;92.90
56103;DHT22;41970;48.774;9.280;2023-09-07T14:07:07;28.70;93.40
56103;DHT22;41970;48.774;9.280;2023-09-07T14:09:33;28.70;93.50
56103;DHT22;41970;48.774;9.280;2023-09-07T14:11:59;28.70;93.30
56103;DHT22;41970;48.774;9.280;2023-09-07T14:14:24;28.80;93.40
56103;DHT22;41970;48.774;9.280;2023-09-07T14:16:51;29.00;93.30
56103;DHT22;41970;48.774;9.280;2023-09-07T14:19:22;29.10;93.50
56103;DHT22;41970;48.774;9.280;2023-09-07T14:21:48;28.90;93.60
56103;DHT22;41970;48.774;9.280;2023-09-07T14:24:13;28.90;93.30
56103;DHT22;41970;48.774;9.280;2023-09-07T14:26:39;29.00;93.10
56103;DHT22;41970;48.774;9.280;2023-09-07T14:29:05;29.20;93.20
56103;DHT22;41970;48.774;9.280;2023-09-07T14:31:30;29.40;92.70
56103;DHT22;41970;48.774;9.280;2023-09-07T14:33:56;29.30;92.80
56103;DHT22;41970;48.774;9.280;2023-09-07T14:36:22;29.30;93.20
56103;DHT22;41970;48.774;9.280;2023-09-07T14:38:48;29.40;93.00
56103;DHT22;41970;48.774;9.280;2023-09-07T14:41:13;29.50;92.60
56103;DHT22;41970;48.774;9.280;2023-09-07T14:43:48;29.60;92.50
56103;DHT22;41970;48.774;9.280;2023-09-07T14:46:15;29.50;92.30
56103;DHT22;41970;48.774;9.280;2023-09-07T14:48:41;29.60;92.40
56103;DHT22;41970;48.774;9.280;2023-09-07T14:51:08;29.40;92.40
56103;DHT22;41970;48.774;9.280;2023-09-07T14:53:33;29.50;92.70
56103;DHT22;41970;48.774;9.280;2023-09-07T14:55:59;29.50;92.40
56103;DHT22;41970;48.774;9.280;2023-09-07T14:58:25;29.70;92.10
56103;DHT22;41970;48.774;9.280;2023-09-07T15:00:54;29.80;92.10
56103;DHT22;41970;48.774;9.280;2023-09-07T15:03:19;29.50;92.10
56103;DHT22;41970;48.774;9.280;2023-09-07T15:05:45;29.50;92.20
56103;DHT22;41970;48.774;9.280;2023-09-07T15:08:11;29.40;92.20
56103;DHT22;41970;48.774;9.280;2023-09-07T15:10:37;29.30;92.80
56103;DHT22;41970;48.774;9.280;2023-09-07T15:13:05;29.30;92.30
56103;DHT22;41970;48.774;9.280;2023-09-07T15:15:32;29.30;92.00
56103;DHT22;41970;48.774;9.280;2023-09-07T15:18:02;29.30;91.90
56103;DHT22;41970;48.774;9.280;2023-09-07T15:20:28;29.40;92.10
56103;DHT22;41970;48.774;9.280;2023-09-07T15:22:54;29.40;91.90
56103;DHT22;41970;48.774;9.280;2023-09-07T15:25:20;29.30;91.80
56103;DHT22;41970;48.774;9.280;2023-09-07T15:27:49;29.20;92.00
56103;DHT22;41970;48.774;9.280;2023-09-07T15:30:15;29.20;91.90